createdAt,value
2018-12-06T00:00:16.700Z,87.8
2018-12-06T00:01:16.732Z,88.1
2018-12-06T00:02:16.994Z,88.2
2018-12-06T00:03:16.264Z,89.0
2018-12-06T00:04:16.540Z,89.5
2018-12-06T00:05:16.793Z,90.1
2018-12-06T00:06:17.061Z,90.0
2018-12-06T00:07:16.326Z,89.7
2018-12-06T00:08:16.592Z,89.1
2018-12-06T00:09:16.859Z,89.8
2018-12-06T00:10:17.125Z,90.5
2018-12-06T00:11:17.194Z,90.3
2018-12-06T00:12:16.469Z,89.7
2018-12-06T00:13:16.732Z,89.6
2018-12-06T00:14:17.010Z,89.3
2018-12-06T00:15:16.298Z,89.2
2018-12-06T00:16:16.568Z,88.8
2018-12-06T00:17:16.839Z,88.8
2018-12-06T00:18:17.106Z,88.5
2018-12-06T00:19:16.367Z,88.5
2018-12-06T00:20:16.653Z,88.5
2018-12-06T00:21:16.674Z,88.6
2018-12-06T00:22:17.017Z,88.6
2018-12-06T00:23:16.289Z,88.2
2018-12-06T00:24:16.551Z,88.3
2018-12-06T00:25:16.809Z,89.2
2018-12-06T00:26:17.086Z,89.0
2018-12-06T00:27:16.343Z,89.8
2018-12-06T00:28:16.601Z,89.7
2018-12-06T00:29:16.877Z,89.2
2018-12-06T00:30:17.154Z,89.5
2018-12-06T00:31:17.199Z,89.8
2018-12-06T00:32:16.457Z,90.3
2018-12-06T00:33:16.742Z,90.2
2018-12-06T00:34:17.011Z,90.2
2018-12-06T00:35:16.275Z,90.2
2018-12-06T00:36:16.539Z,90.0
2018-12-06T00:37:16.798Z,90.0
2018-12-06T00:38:17.066Z,89.8
2018-12-06T00:39:16.325Z,89.9
2018-12-06T00:40:16.590Z,90.2
2018-12-06T00:41:16.637Z,89.7
2018-12-06T00:42:16.896Z,89.7
2018-12-06T00:43:17.155Z,89.8
2018-12-06T00:44:16.428Z,89.8
2018-12-06T00:45:16.700Z,90.1
2018-12-06T00:46:16.969Z,90.5
2018-12-06T00:47:17.243Z,90.5
2018-12-06T00:48:16.504Z,90.7
2018-12-06T00:49:16.765Z,90.4
2018-12-06T00:50:17.029Z,90.4
2018-12-06T00:51:17.525Z,90.0
2018-12-06T00:52:16.786Z,89.3
2018-12-06T00:53:17.071Z,89.5
2018-12-06T00:54:16.342Z,89.5
2018-12-06T00:55:16.616Z,89.4
2018-12-06T00:56:16.878Z,89.0
2018-12-06T00:57:17.491Z,88.8
2018-12-06T00:58:16.767Z,88.4
2018-12-06T00:59:17.033Z,88.7
2018-12-06T01:00:16.324Z,88.8
2018-12-06T01:01:16.360Z,88.4
2018-12-06T01:02:16.628Z,88.6
2018-12-06T01:03:16.908Z,88.7
2018-12-06T01:04:17.176Z,88.2
2018-12-06T01:05:16.436Z,88.5
2018-12-06T01:06:16.705Z,88.2
2018-12-06T01:07:16.966Z,87.9
2018-12-06T01:08:17.237Z,87.2
2018-12-06T01:09:16.510Z,86.8
2018-12-06T01:10:16.797Z,87.2
2018-12-06T01:11:16.838Z,87.2
2018-12-06T01:12:17.104Z,86.8
2018-12-06T01:13:16.763Z,86.7
2018-12-06T01:14:17.020Z,86.9
2018-12-06T01:15:16.286Z,87.2
2018-12-06T01:16:16.557Z,87.6
2018-12-06T01:17:16.828Z,87.7
2018-12-06T01:18:17.098Z,87.2
2018-12-06T01:19:16.355Z,87.5
2018-12-06T01:20:16.638Z,87.5
2018-12-06T01:21:16.703Z,87.1
2018-12-06T01:22:16.972Z,87.2
2018-12-06T01:23:17.498Z,87.2
2018-12-06T01:24:16.768Z,86.6
2018-12-06T01:25:17.059Z,86.6
2018-12-06T01:26:16.335Z,86.6
2018-12-06T01:27:16.604Z,86.5
2018-12-06T01:28:16.864Z,86.7
2018-12-06T01:29:17.134Z,86.8
2018-12-06T01:30:16.426Z,86.6
2018-12-06T01:31:16.457Z,86.7
2018-12-06T01:32:16.721Z,86.5
2018-12-06T01:33:16.993Z,86.4
2018-12-06T01:34:16.262Z,86.7
2018-12-06T01:35:16.537Z,86.7
2018-12-06T01:36:16.798Z,86.6
2018-12-06T01:37:17.067Z,86.4
2018-12-06T01:38:16.332Z,86.2
2018-12-06T01:39:16.606Z,86.4
2018-12-06T01:40:16.870Z,86.7
2018-12-06T01:41:16.933Z,87.3
2018-12-06T01:42:17.200Z,87.3
2018-12-06T01:43:16.467Z,87.5
2018-12-06T01:44:16.730Z,86.9
2018-12-06T01:45:16.997Z,86.9
2018-12-06T01:46:16.327Z,86.6
2018-12-06T01:47:16.595Z,87.4
2018-12-06T01:48:16.864Z,86.4
2018-12-06T01:49:17.158Z,87.0
2018-12-06T01:50:16.447Z,87.3
2018-12-06T01:51:16.502Z,87.2
2018-12-06T01:52:16.767Z,86.9
2018-12-06T01:53:17.028Z,87.4
2018-12-06T01:54:16.309Z,87.5
2018-12-06T01:55:16.566Z,87.2
2018-12-06T01:56:16.822Z,86.5
2018-12-06T01:57:17.090Z,86.7
2018-12-06T01:58:16.353Z,86.5
2018-12-06T01:59:16.627Z,86.6
2018-12-06T02:00:16.896Z,86.8
2018-12-06T02:01:16.937Z,86.6
2018-12-06T02:02:17.210Z,86.7
2018-12-06T02:03:16.476Z,87.2
2018-12-06T02:04:16.748Z,86.9
2018-12-06T02:05:17.027Z,86.8
2018-12-06T02:06:16.293Z,86.9
2018-12-06T02:07:16.551Z,86.8
2018-12-06T02:08:16.814Z,87.0
2018-12-06T02:09:17.336Z,87.1
2018-12-06T02:10:16.610Z,86.8
2018-12-06T02:11:16.646Z,86.7
2018-12-06T02:12:16.910Z,86.7
2018-12-06T02:13:17.175Z,86.8
2018-12-06T02:14:16.441Z,86.8
2018-12-06T02:15:16.737Z,86.8
2018-12-06T02:16:17.006Z,86.6
2018-12-06T02:17:16.273Z,86.5
2018-12-06T02:18:16.561Z,86.9
2018-12-06T02:19:17.289Z,86.8
2018-12-06T02:20:16.573Z,86.7
2018-12-06T02:21:16.615Z,87.3
2018-12-06T02:22:16.889Z,87.2
2018-12-06T02:23:17.151Z,87.0
2018-12-06T02:24:16.425Z,87.1
2018-12-06T02:25:16.697Z,87.1
2018-12-06T02:26:16.960Z,86.8
2018-12-06T02:27:17.219Z,87.0
2018-12-06T02:28:16.486Z,86.9
2018-12-06T02:29:16.754Z,86.9
2018-12-06T02:30:17.041Z,87.4
2018-12-06T02:31:17.096Z,87.8
2018-12-06T02:32:16.354Z,87.3
2018-12-06T02:33:16.623Z,86.8
2018-12-06T02:34:16.893Z,87.2
2018-12-06T02:35:17.681Z,87.2
2018-12-06T02:36:16.947Z,87.3
2018-12-06T02:37:17.210Z,87.2
2018-12-06T02:38:16.480Z,87.2
2018-12-06T02:39:16.743Z,87.9
2018-12-06T02:40:17.049Z,87.2
2018-12-06T02:41:17.063Z,87.2
2018-12-06T02:42:16.336Z,87.2
2018-12-06T02:43:16.608Z,87.0
2018-12-06T02:44:16.881Z,87.1
2018-12-06T02:45:17.152Z,87.2
2018-12-06T02:46:16.425Z,86.8
2018-12-06T02:47:16.685Z,87.3
2018-12-06T02:48:16.963Z,87.6
2018-12-06T02:49:17.228Z,87.3
2018-12-06T02:50:16.513Z,87.4
2018-12-06T02:51:16.571Z,87.3
2018-12-06T02:52:16.828Z,87.9
2018-12-06T02:53:17.114Z,87.7
2018-12-06T02:54:16.393Z,88.0
2018-12-06T02:55:16.682Z,87.7
2018-12-06T02:56:16.963Z,87.3
2018-12-06T02:57:17.236Z,87.8
2018-12-06T02:58:16.501Z,88.0
2018-12-06T02:59:16.766Z,87.6
2018-12-06T03:00:17.288Z,88.0
2018-12-06T03:01:17.097Z,88.0
2018-12-06T03:02:16.379Z,88.3
2018-12-06T03:03:16.655Z,88.4
2018-12-06T03:04:16.928Z,88.7
2018-12-06T03:05:17.195Z,88.3
2018-12-06T03:06:16.463Z,88.1
2018-12-06T03:07:16.733Z,88.0
2018-12-06T03:08:17.008Z,87.9
2018-12-06T03:09:16.321Z,87.5
2018-12-06T03:10:16.622Z,87.7
2018-12-06T03:11:16.665Z,87.9
2018-12-06T03:12:16.947Z,87.7
2018-12-06T03:13:17.216Z,88.1
2018-12-06T03:14:16.478Z,88.2
2018-12-06T03:15:16.749Z,88.0
2018-12-06T03:16:17.036Z,88.0
2018-12-06T03:17:16.298Z,87.8
2018-12-06T03:18:16.563Z,88.0
2018-12-06T03:19:16.846Z,88.1
2018-12-06T03:20:17.138Z,88.1
2018-12-06T03:21:17.176Z,87.9
2018-12-06T03:22:16.451Z,88.1
2018-12-06T03:23:16.728Z,88.2
2018-12-06T03:24:16.997Z,88.1
2018-12-06T03:25:16.410Z,88.3
2018-12-06T03:26:16.673Z,88.2
2018-12-06T03:27:16.944Z,88.2
2018-12-06T03:28:17.215Z,88.5
2018-12-06T03:29:16.488Z,88.3
2018-12-06T03:30:16.803Z,88.1
2018-12-06T03:31:16.339Z,88.0
2018-12-06T03:32:16.630Z,88.3
2018-12-06T03:33:16.910Z,88.5
2018-12-06T03:34:17.185Z,88.8
2018-12-06T03:35:16.475Z,88.5
2018-12-06T03:36:16.765Z,89.1
2018-12-06T03:37:17.035Z,88.9
2018-12-06T03:38:16.303Z,89.0
2018-12-06T03:39:16.640Z,89.0
2018-12-06T03:40:16.921Z,89.1
2018-12-06T03:41:16.981Z,89.5
2018-12-06T03:42:17.258Z,89.7
2018-12-06T03:43:16.519Z,89.5
2018-12-06T03:44:16.784Z,89.5
2018-12-06T03:45:17.367Z,89.7
2018-12-06T03:46:16.636Z,90.0
2018-12-06T03:47:16.910Z,90.3
2018-12-06T03:48:17.184Z,90.2
2018-12-06T03:49:16.450Z,89.9
2018-12-06T03:50:16.731Z,90.4
2018-12-06T03:51:16.771Z,90.5
2018-12-06T03:52:17.041Z,90.8
2018-12-06T03:53:16.314Z,91.1
2018-12-06T03:54:16.586Z,91.2
2018-12-06T03:55:16.862Z,91.2
2018-12-06T03:56:17.126Z,91.5
2018-12-06T03:57:16.398Z,92.0
2018-12-06T03:58:16.681Z,91.7
2018-12-06T03:59:16.945Z,91.8
2018-12-06T04:00:17.249Z,92.4
2018-12-06T04:01:16.269Z,92.3
2018-12-06T04:02:16.557Z,92.5
2018-12-06T04:03:16.824Z,92.6
2018-12-06T04:04:17.162Z,93.0
2018-12-06T04:05:16.447Z,93.0
2018-12-06T04:06:16.708Z,93.1
2018-12-06T04:07:16.974Z,93.2
2018-12-06T04:08:17.235Z,93.3
2018-12-06T04:09:16.505Z,93.3
2018-12-06T04:10:16.791Z,93.3
2018-12-06T04:11:16.843Z,93.3
2018-12-06T04:12:17.103Z,93.6
2018-12-06T04:13:16.383Z,93.7
2018-12-06T04:14:16.662Z,93.7
2018-12-06T04:15:16.934Z,94.0
2018-12-06T04:16:17.467Z,94.2
2018-12-06T04:17:16.769Z,94.1
2018-12-06T04:18:17.043Z,94.2
2018-12-06T04:19:16.305Z,94.6
2018-12-06T04:20:16.578Z,94.7
2018-12-06T04:21:16.655Z,94.7
2018-12-06T04:22:16.932Z,95.0
2018-12-06T04:23:17.199Z,95.1
2018-12-06T04:24:16.463Z,94.8
2018-12-06T04:25:16.773Z,94.8
2018-12-06T04:26:17.032Z,94.8
2018-12-06T04:27:16.301Z,94.8
2018-12-06T04:28:16.572Z,94.7
2018-12-06T04:29:16.841Z,95.2
2018-12-06T04:30:17.189Z,95.0
2018-12-06T04:31:17.446Z,95.0
2018-12-06T04:32:17.722Z,95.3
2018-12-06T04:33:16.992Z,95.3
2018-12-06T04:34:16.265Z,95.2
2018-12-06T04:35:16.530Z,95.3
2018-12-06T04:36:16.799Z,95.5
2018-12-06T04:37:17.395Z,95.2
2018-12-06T04:38:16.671Z,95.3
2018-12-06T04:39:16.943Z,95.5
2018-12-06T04:40:17.212Z,95.8
2018-12-06T04:41:16.285Z,95.8
2018-12-06T04:42:16.564Z,96.2
2018-12-06T04:43:16.841Z,96.2
2018-12-06T04:44:17.101Z,96.0
2018-12-06T04:45:16.378Z,96.0
2018-12-06T04:46:16.650Z,95.8
2018-12-06T04:47:16.925Z,96.0
2018-12-06T04:48:22.443Z,95.7
2018-12-06T04:49:16.764Z,95.7
2018-12-06T04:50:17.041Z,95.8
2018-12-06T04:51:17.091Z,95.8
2018-12-06T04:52:16.372Z,96.1
2018-12-06T04:53:16.632Z,96.3
2018-12-06T04:54:16.951Z,96.2
2018-12-06T04:55:17.227Z,96.2
2018-12-06T04:56:16.469Z,96.3
2018-12-06T04:57:16.729Z,96.4
2018-12-06T04:58:16.987Z,96.5
2018-12-06T04:59:17.259Z,96.7
2018-12-06T05:00:16.609Z,96.5
2018-12-06T05:01:16.583Z,96.5
2018-12-06T05:02:16.931Z,96.8
2018-12-06T05:03:17.196Z,96.7
2018-12-06T05:04:16.456Z,96.8
2018-12-06T05:05:16.739Z,96.9
2018-12-06T05:06:17.000Z,96.8
2018-12-06T05:07:16.269Z,96.8
2018-12-06T05:08:16.535Z,97.0
2018-12-06T05:09:16.809Z,97.1
2018-12-06T05:10:17.102Z,97.3
2018-12-06T05:11:17.152Z,97.5
2018-12-06T05:12:16.407Z,97.2
2018-12-06T05:13:16.673Z,97.2
2018-12-06T05:14:16.932Z,97.2
2018-12-06T05:15:17.211Z,97.4
2018-12-06T05:16:16.479Z,97.3
2018-12-06T05:17:16.742Z,97.3
2018-12-06T05:18:17.011Z,97.4
2018-12-06T05:19:16.277Z,97.5
2018-12-06T05:20:16.565Z,97.5
2018-12-06T05:21:16.610Z,97.5
2018-12-06T05:22:16.888Z,97.7
2018-12-06T05:23:17.154Z,97.5
2018-12-06T05:24:16.420Z,97.7
2018-12-06T05:25:16.697Z,97.7
2018-12-06T05:26:16.976Z,97.6
2018-12-06T05:27:17.249Z,97.7
2018-12-06T05:28:16.517Z,97.7
2018-12-06T05:29:16.792Z,97.8
2018-12-06T05:30:17.064Z,97.8
2018-12-06T05:31:17.104Z,97.8
2018-12-06T05:32:16.361Z,97.7
2018-12-06T05:33:16.623Z,97.8
2018-12-06T05:34:16.897Z,97.8
2018-12-06T05:35:17.430Z,98.0
2018-12-06T05:36:16.695Z,98.0
2018-12-06T05:37:16.960Z,97.9
2018-12-06T05:38:17.240Z,98.0
2018-12-06T05:39:16.510Z,98.0
2018-12-06T05:40:16.780Z,98.0
2018-12-06T05:41:16.841Z,98.1
2018-12-06T05:42:17.127Z,98.1
2018-12-06T05:43:16.402Z,98.2
2018-12-06T05:44:16.671Z,98.2
2018-12-06T05:45:16.937Z,98.2
2018-12-06T05:46:17.218Z,98.2
2018-12-06T05:47:16.493Z,98.3
2018-12-06T05:48:16.763Z,98.4
2018-12-06T05:49:17.025Z,98.3
2018-12-06T05:50:16.300Z,98.5
2018-12-06T05:51:16.331Z,98.5
2018-12-06T05:52:16.601Z,98.5
2018-12-06T05:53:16.864Z,98.5
2018-12-06T05:54:17.126Z,98.5
2018-12-06T05:55:16.384Z,98.5
2018-12-06T05:56:16.645Z,98.5
2018-12-06T05:57:16.909Z,98.5
2018-12-06T05:58:17.176Z,98.5
2018-12-06T05:59:16.443Z,98.5
2018-12-06T06:00:16.735Z,98.5
2018-12-06T06:01:16.758Z,98.5
2018-12-06T06:02:17.019Z,98.5
2018-12-06T06:03:16.279Z,98.5
2018-12-06T06:04:16.565Z,98.5
2018-12-06T06:05:16.825Z,98.6
2018-12-06T06:06:17.094Z,98.5
2018-12-06T06:07:16.368Z,98.6
2018-12-06T06:08:16.646Z,98.6
2018-12-06T06:09:16.909Z,98.5
2018-12-06T06:10:17.185Z,98.6
2018-12-06T06:11:17.237Z,98.6
2018-12-06T06:12:16.514Z,98.6
2018-12-06T06:13:16.799Z,98.6
2018-12-06T06:14:17.077Z,98.6
2018-12-06T06:15:16.346Z,98.7
2018-12-06T06:16:16.611Z,98.6
2018-12-06T06:17:16.884Z,98.6
2018-12-06T06:18:17.137Z,98.6
2018-12-06T06:19:16.408Z,98.5
2018-12-06T06:20:16.686Z,98.6
2018-12-06T06:21:16.748Z,98.7
2018-12-06T06:22:17.018Z,98.5
2018-12-06T06:23:16.276Z,98.5
2018-12-06T06:24:16.544Z,98.7
2018-12-06T06:25:16.838Z,98.7
2018-12-06T06:26:17.108Z,98.7
2018-12-06T06:27:16.377Z,98.8
2018-12-06T06:28:16.648Z,98.8
2018-12-06T06:29:16.904Z,98.7
2018-12-06T06:30:17.193Z,98.7
2018-12-06T06:31:17.223Z,98.7
2018-12-06T06:32:16.489Z,98.7
2018-12-06T06:33:16.752Z,98.7
2018-12-06T06:34:17.033Z,98.7
2018-12-06T06:35:16.328Z,98.7
2018-12-06T06:36:16.624Z,98.7
2018-12-06T06:37:16.886Z,98.7
2018-12-06T06:38:17.163Z,98.7
2018-12-06T06:39:16.433Z,98.8
2018-12-06T06:40:16.714Z,98.8
2018-12-06T06:41:16.764Z,98.8
2018-12-06T06:42:17.029Z,98.8
2018-12-06T06:43:16.295Z,98.9
2018-12-06T06:44:16.567Z,98.9
2018-12-06T06:45:16.843Z,98.8
2018-12-06T06:46:17.109Z,98.8
2018-12-06T06:47:16.378Z,98.8
2018-12-06T06:48:16.644Z,98.8
2018-12-06T06:49:16.915Z,98.8
2018-12-06T06:50:17.186Z,98.8
2018-12-06T06:51:17.236Z,98.7
2018-12-06T06:52:16.510Z,98.7
2018-12-06T06:53:16.786Z,98.7
2018-12-06T06:54:17.051Z,98.7
2018-12-06T06:55:16.324Z,98.7
2018-12-06T06:56:16.585Z,98.7
2018-12-06T06:57:16.860Z,98.7
2018-12-06T06:58:17.134Z,98.7
2018-12-06T06:59:16.402Z,98.7
2018-12-06T07:00:16.673Z,98.7
2018-12-06T07:01:16.746Z,98.7
2018-12-06T07:02:17.008Z,98.7
2018-12-06T07:03:16.281Z,98.7
2018-12-06T07:04:16.559Z,98.8
2018-12-06T07:05:16.828Z,98.5
2018-12-06T07:06:17.109Z,98.5
2018-12-06T07:07:16.367Z,98.6
2018-12-06T07:08:16.631Z,98.5
2018-12-06T07:09:16.911Z,98.3
2018-12-06T07:10:17.184Z,98.5
2018-12-06T07:11:17.234Z,98.5
2018-12-06T07:12:16.509Z,98.5
2018-12-06T07:13:16.774Z,98.5
2018-12-06T07:14:17.066Z,98.5
2018-12-06T07:15:16.332Z,98.5
2018-12-06T07:16:16.598Z,98.5
2018-12-06T07:17:16.869Z,98.5
2018-12-06T07:18:17.139Z,98.5
2018-12-06T07:19:16.400Z,98.5
2018-12-06T07:20:16.754Z,98.5
2018-12-06T07:21:16.820Z,98.5
2018-12-06T07:22:17.164Z,98.5
2018-12-06T07:23:16.433Z,98.5
2018-12-06T07:24:16.701Z,98.4
2018-12-06T07:25:16.961Z,98.5
2018-12-06T07:26:17.223Z,98.5
2018-12-06T07:27:16.482Z,98.5
2018-12-06T07:28:16.751Z,98.3
2018-12-06T07:29:17.019Z,98.4
2018-12-06T07:30:16.301Z,98.5
2018-12-06T07:31:16.351Z,98.5
2018-12-06T07:32:16.619Z,98.3
2018-12-06T07:33:16.888Z,98.4
2018-12-06T07:34:17.158Z,98.4
2018-12-06T07:35:16.440Z,98.4
2018-12-06T07:36:16.697Z,98.5
2018-12-06T07:37:16.958Z,98.3
2018-12-06T07:38:17.234Z,98.4
2018-12-06T07:39:16.514Z,98.5
2018-12-06T07:40:16.787Z,98.5
2018-12-06T07:41:16.837Z,98.5
2018-12-06T07:42:17.091Z,98.5
2018-12-06T07:43:16.354Z,98.5
2018-12-06T07:44:16.623Z,98.5
2018-12-06T07:45:16.887Z,98.4
2018-12-06T07:46:17.159Z,98.5
2018-12-06T07:47:16.430Z,98.5
2018-12-06T07:48:16.691Z,98.5
2018-12-06T07:49:16.961Z,98.5
2018-12-06T07:50:17.239Z,98.5
2018-12-06T07:51:16.293Z,98.6
2018-12-06T07:52:16.552Z,98.7
2018-12-06T07:53:16.821Z,98.6
2018-12-06T07:54:17.097Z,98.6
2018-12-06T07:55:16.353Z,98.5
2018-12-06T07:56:16.617Z,98.5
2018-12-06T07:57:16.884Z,98.6
2018-12-06T07:58:17.257Z,98.7
2018-12-06T07:59:16.521Z,98.5
2018-12-06T08:00:16.938Z,98.6
2018-12-06T08:01:16.846Z,98.5
2018-12-06T08:02:17.116Z,98.5
2018-12-06T08:03:16.376Z,98.5
2018-12-06T08:04:16.658Z,98.6
2018-12-06T08:05:16.931Z,98.6
2018-12-06T08:06:17.200Z,98.5
2018-12-06T08:07:16.466Z,98.5
2018-12-06T08:08:16.738Z,98.5
2018-12-06T08:09:17.001Z,98.5
2018-12-06T08:10:16.288Z,98.5
2018-12-06T08:11:16.323Z,98.5
2018-12-06T08:12:16.598Z,98.5
2018-12-06T08:13:16.861Z,98.5
2018-12-06T08:14:17.145Z,98.5
2018-12-06T08:15:16.433Z,98.5
2018-12-06T08:16:16.707Z,98.5
2018-12-06T08:17:16.973Z,98.7
2018-12-06T08:18:17.242Z,98.5
2018-12-06T08:19:16.511Z,98.5
2018-12-06T08:20:16.782Z,98.5
2018-12-06T08:21:16.822Z,98.5
2018-12-06T08:22:17.095Z,98.5
2018-12-06T08:23:16.370Z,98.5
2018-12-06T08:24:16.638Z,98.3
2018-12-06T08:25:16.908Z,98.5
2018-12-06T08:26:17.170Z,98.4
2018-12-06T08:27:16.444Z,98.4
2018-12-06T08:28:16.716Z,98.3
2018-12-06T08:29:16.988Z,98.4
2018-12-06T08:30:17.295Z,98.2
2018-12-06T08:31:16.328Z,98.2
2018-12-06T08:32:16.600Z,98.2
2018-12-06T08:33:16.862Z,98.3
2018-12-06T08:34:17.128Z,98.5
2018-12-06T08:35:16.397Z,98.2
2018-12-06T08:36:16.658Z,98.3
2018-12-06T08:37:16.921Z,98.2
2018-12-06T08:38:17.192Z,98.2
2018-12-06T08:39:16.466Z,98.3
2018-12-06T08:40:16.744Z,98.0
2018-12-06T08:41:16.787Z,98.2
2018-12-06T08:42:17.058Z,98.2
2018-12-06T08:43:16.320Z,98.0
2018-12-06T08:44:21.706Z,97.9
2018-12-06T08:45:16.987Z,98.0
2018-12-06T08:46:17.254Z,98.0
2018-12-06T08:47:16.532Z,98.0
2018-12-06T08:48:16.804Z,97.9
2018-12-06T08:49:17.310Z,98.0
2018-12-06T08:50:16.579Z,97.8
2018-12-06T08:51:16.622Z,97.8
2018-12-06T08:52:16.888Z,97.8
2018-12-06T08:53:17.150Z,97.8
2018-12-06T08:54:16.412Z,97.7
2018-12-06T08:55:16.674Z,97.7
2018-12-06T08:56:16.941Z,97.8
2018-12-06T08:57:17.214Z,97.7
2018-12-06T08:58:16.478Z,97.8
2018-12-06T08:59:16.754Z,98.0
2018-12-06T09:00:17.033Z,98.0
2018-12-06T09:01:17.091Z,98.0
2018-12-06T09:02:16.356Z,98.1
2018-12-06T09:03:16.629Z,98.2
2018-12-06T09:04:16.889Z,98.2
2018-12-06T09:05:17.160Z,98.3
2018-12-06T09:06:16.430Z,98.3
2018-12-06T09:07:16.694Z,98.3
2018-12-06T09:08:16.960Z,98.3
2018-12-06T09:09:17.246Z,98.5
2018-12-06T09:10:16.530Z,98.4
2018-12-06T09:11:16.575Z,98.5
2018-12-06T09:12:16.840Z,98.5
2018-12-06T09:13:17.135Z,98.5
2018-12-06T09:14:16.399Z,98.5
2018-12-06T09:15:16.686Z,98.5
2018-12-06T09:16:16.947Z,98.6
2018-12-06T09:17:17.205Z,98.5
2018-12-06T09:18:16.480Z,98.5
2018-12-06T09:19:16.749Z,98.5
2018-12-06T09:20:17.026Z,98.5
2018-12-06T09:21:17.065Z,98.5
2018-12-06T09:22:16.331Z,98.5
2018-12-06T09:23:16.605Z,98.5
2018-12-06T09:24:16.865Z,98.5
2018-12-06T09:25:21.541Z,98.5
2018-12-06T09:26:16.849Z,98.7
2018-12-06T09:27:17.115Z,98.6
2018-12-06T09:28:16.382Z,98.5
2018-12-06T09:29:16.664Z,98.5
2018-12-06T09:30:16.960Z,98.5
2018-12-06T09:31:16.993Z,98.5
2018-12-06T09:32:16.257Z,98.5
2018-12-06T09:33:16.516Z,98.3
2018-12-06T09:34:16.780Z,98.5
2018-12-06T09:35:17.038Z,98.6
2018-12-06T09:36:16.306Z,98.5
2018-12-06T09:37:16.575Z,98.5
2018-12-06T09:38:16.851Z,98.6
2018-12-06T09:39:17.125Z,98.7
2018-12-06T09:40:16.396Z,98.6
2018-12-06T09:41:16.446Z,98.6
2018-12-06T09:42:16.706Z,98.7
2018-12-06T09:43:16.971Z,98.8
2018-12-06T09:44:17.245Z,98.7
2018-12-06T09:45:16.515Z,98.5
2018-12-06T09:46:16.790Z,98.5
2018-12-06T09:47:17.067Z,98.6
2018-12-06T09:48:16.334Z,98.7
2018-12-06T09:49:16.599Z,98.5
2018-12-06T09:50:16.885Z,98.5
2018-12-06T09:51:16.924Z,98.7
2018-12-06T09:52:17.199Z,98.5
2018-12-06T09:53:16.462Z,98.7
2018-12-06T09:54:16.726Z,98.7
2018-12-06T09:55:16.992Z,98.7
2018-12-06T09:56:16.262Z,98.7
2018-12-06T09:57:16.537Z,98.8
2018-12-06T09:58:16.810Z,98.8
2018-12-06T09:59:17.070Z,98.6
2018-12-06T10:00:16.348Z,98.5
2018-12-06T10:01:16.407Z,98.5
2018-12-06T10:02:16.667Z,98.4
2018-12-06T10:03:16.939Z,98.5
2018-12-06T10:04:17.206Z,98.5
2018-12-06T10:05:16.478Z,98.5
2018-12-06T10:06:16.758Z,98.5
2018-12-06T10:07:17.017Z,98.5
2018-12-06T10:08:16.293Z,98.5
2018-12-06T10:09:16.558Z,98.5
2018-12-06T10:10:16.839Z,98.5
2018-12-06T10:11:16.903Z,98.5
2018-12-06T10:12:17.166Z,98.2
2018-12-06T10:13:16.429Z,98.2
2018-12-06T10:14:16.694Z,98.2
2018-12-06T10:15:16.969Z,98.1
2018-12-06T10:16:17.234Z,98.2
2018-12-06T10:17:16.502Z,98.1
2018-12-06T10:18:16.777Z,98.2
2018-12-06T10:19:17.044Z,98.4
2018-12-06T10:20:16.308Z,98.4
2018-12-06T10:21:16.352Z,98.2
2018-12-06T10:22:16.627Z,98.2
2018-12-06T10:23:16.895Z,98.3
2018-12-06T10:24:17.173Z,98.2
2018-12-06T10:25:16.444Z,98.2
2018-12-06T10:26:16.706Z,98.2
2018-12-06T10:27:16.958Z,98.1
2018-12-06T10:28:17.212Z,98.1
2018-12-06T10:29:16.481Z,98.1
2018-12-06T10:30:16.765Z,98.2
2018-12-06T10:31:16.799Z,98.1
2018-12-06T10:32:17.058Z,98.2
2018-12-06T10:33:16.324Z,98.3
2018-12-06T10:34:16.595Z,98.5
2018-12-06T10:35:16.856Z,98.5
2018-12-06T10:36:17.124Z,98.5
2018-12-06T10:37:16.392Z,98.5
2018-12-06T10:38:16.635Z,98.5
2018-12-06T10:39:16.902Z,98.3
2018-12-06T10:40:17.201Z,98.2
2018-12-06T10:41:17.225Z,98.3
2018-12-06T10:42:16.511Z,98.3
2018-12-06T10:43:16.775Z,98.3
2018-12-06T10:44:17.049Z,98.2
2018-12-06T10:45:16.320Z,98.2
2018-12-06T10:46:16.615Z,98.2
2018-12-06T10:47:16.887Z,98.1
2018-12-06T10:48:17.157Z,98.0
2018-12-06T10:49:16.427Z,98.2
2018-12-06T10:50:16.701Z,98.2
2018-12-06T10:51:16.760Z,98.3
2018-12-06T10:52:17.019Z,98.2
2018-12-06T10:53:16.297Z,98.0
2018-12-06T10:54:16.557Z,98.0
2018-12-06T10:55:16.830Z,98.0
2018-12-06T10:56:17.105Z,97.9
2018-12-06T10:57:16.368Z,97.9
2018-12-06T10:58:16.632Z,98.0
2018-12-06T10:59:16.898Z,98.0
2018-12-06T11:00:17.175Z,98.0
2018-12-06T11:01:17.212Z,98.0
2018-12-06T11:02:16.475Z,98.0
2018-12-06T11:03:16.740Z,98.0
2018-12-06T11:04:17.004Z,98.0
2018-12-06T11:05:16.285Z,98.1
2018-12-06T11:06:16.557Z,98.1
2018-12-06T11:07:16.826Z,98.0
2018-12-06T11:08:17.086Z,98.1
2018-12-06T11:09:16.338Z,97.9
2018-12-06T11:10:16.605Z,97.9
2018-12-06T11:11:16.659Z,97.8
2018-12-06T11:12:16.924Z,98.0
2018-12-06T11:13:17.208Z,98.0
2018-12-06T11:14:16.477Z,98.2
2018-12-06T11:15:16.738Z,98.2
2018-12-06T11:16:16.993Z,98.2
2018-12-06T11:17:16.263Z,97.9
2018-12-06T11:18:16.544Z,97.8
2018-12-06T11:19:16.828Z,97.8
2018-12-06T11:20:17.095Z,98.0
2018-12-06T11:21:17.164Z,98.0
2018-12-06T11:22:16.434Z,98.0
2018-12-06T11:23:16.702Z,97.8
2018-12-06T11:24:16.977Z,97.7
2018-12-06T11:25:17.243Z,97.6
2018-12-06T11:26:16.504Z,97.6
2018-12-06T11:27:16.769Z,97.3
2018-12-06T11:28:17.035Z,97.5
2018-12-06T11:29:16.352Z,97.7
2018-12-06T11:30:16.626Z,97.3
2018-12-06T11:31:16.700Z,97.2
2018-12-06T11:32:16.979Z,97.3
2018-12-06T11:33:17.252Z,97.3
2018-12-06T11:34:16.528Z,97.2
2018-12-06T11:35:16.793Z,97.2
2018-12-06T11:36:17.048Z,97.3
2018-12-06T11:37:16.314Z,97.2
2018-12-06T11:38:16.577Z,97.3
2018-12-06T11:39:16.838Z,97.2
2018-12-06T11:40:17.115Z,97.3
2018-12-06T11:41:17.160Z,97.2
2018-12-06T11:42:16.416Z,97.0
2018-12-06T11:43:16.689Z,97.2
2018-12-06T11:44:16.962Z,97.3
2018-12-06T11:45:17.233Z,97.5
2018-12-06T11:46:16.491Z,97.2
2018-12-06T11:47:16.763Z,96.8
2018-12-06T11:48:17.041Z,96.9
2018-12-06T11:49:16.313Z,96.9
2018-12-06T11:50:16.577Z,97.1
2018-12-06T11:51:16.636Z,97.0
2018-12-06T11:52:16.897Z,97.1
2018-12-06T11:53:17.153Z,96.8
2018-12-06T11:54:16.418Z,96.8
2018-12-06T11:55:16.721Z,97.0
2018-12-06T11:56:17.002Z,96.9
2018-12-06T11:57:16.259Z,96.5
2018-12-06T11:58:16.523Z,96.6
2018-12-06T11:59:16.794Z,96.3
2018-12-06T12:00:17.081Z,96.3
2018-12-06T12:01:17.119Z,96.2
2018-12-06T12:02:16.392Z,96.7
2018-12-06T12:03:16.661Z,96.6
2018-12-06T12:04:16.929Z,96.8
2018-12-06T12:05:17.211Z,97.0
2018-12-06T12:06:16.474Z,96.7
2018-12-06T12:07:16.747Z,96.5
2018-12-06T12:08:17.007Z,96.5
2018-12-06T12:09:16.375Z,96.5
2018-12-06T12:10:16.674Z,96.8
2018-12-06T12:11:16.731Z,96.8
2018-12-06T12:12:16.991Z,96.9
2018-12-06T12:13:17.250Z,96.8
2018-12-06T12:14:16.568Z,96.8
2018-12-06T12:15:16.852Z,96.8
2018-12-06T12:16:17.127Z,96.8
2018-12-06T12:17:16.417Z,96.8
2018-12-06T12:18:16.672Z,96.9
2018-12-06T12:19:16.928Z,96.8
2018-12-06T12:20:17.196Z,97.0
2018-12-06T12:21:17.250Z,97.0
2018-12-06T12:22:16.526Z,96.9
2018-12-06T12:23:16.826Z,96.8
2018-12-06T12:24:17.095Z,96.7
2018-12-06T12:25:16.361Z,96.8
2018-12-06T12:26:16.653Z,96.9
2018-12-06T12:27:16.924Z,96.7
2018-12-06T12:28:17.192Z,96.7
2018-12-06T12:29:16.457Z,96.7
2018-12-06T12:30:16.738Z,96.8
2018-12-06T12:31:16.799Z,97.1
2018-12-06T12:32:17.075Z,96.8
2018-12-06T12:33:16.347Z,96.8
2018-12-06T12:34:16.601Z,96.7
2018-12-06T12:35:16.871Z,96.2
2018-12-06T12:36:17.141Z,96.3
2018-12-06T12:37:16.399Z,96.4
2018-12-06T12:38:16.673Z,96.3
2018-12-06T12:39:16.944Z,96.4
2018-12-06T12:40:17.226Z,96.3
2018-12-06T12:41:16.287Z,96.6
2018-12-06T12:42:16.571Z,96.4
2018-12-06T12:43:16.827Z,96.5
2018-12-06T12:44:17.101Z,96.6
2018-12-06T12:45:16.379Z,96.5
2018-12-06T12:46:17.223Z,96.2
2018-12-06T12:47:16.493Z,96.3
2018-12-06T12:48:16.753Z,96.8
2018-12-06T12:49:17.026Z,97.1
2018-12-06T12:50:16.287Z,97.0
2018-12-06T12:51:16.351Z,97.0
2018-12-06T12:52:16.617Z,96.7
2018-12-06T12:53:16.882Z,96.5
2018-12-06T12:54:17.140Z,96.5
2018-12-06T12:55:16.403Z,96.6
2018-12-06T12:56:16.675Z,96.4
2018-12-06T12:57:17.006Z,96.8
2018-12-06T12:58:16.274Z,96.8
2018-12-06T12:59:16.544Z,96.8
2018-12-06T13:00:16.812Z,97.1
2018-12-06T13:01:16.896Z,96.8
2018-12-06T13:02:17.175Z,96.7
2018-12-06T13:03:16.439Z,96.6
2018-12-06T13:04:16.714Z,96.8
2018-12-06T13:05:16.973Z,97.0
2018-12-06T13:06:17.255Z,96.7
2018-12-06T13:07:16.526Z,96.8
2018-12-06T13:08:16.784Z,96.8
2018-12-06T13:09:17.058Z,96.4
2018-12-06T13:10:16.325Z,96.8
2018-12-06T13:11:16.387Z,97.2
2018-12-06T13:12:16.647Z,97.2
2018-12-06T13:13:16.916Z,97.3
2018-12-06T13:14:17.182Z,97.4
2018-12-06T13:15:16.463Z,97.3
2018-12-06T13:16:16.726Z,97.3
2018-12-06T13:17:16.985Z,97.3
2018-12-06T13:18:17.247Z,97.3